createdAt,value
2019-04-27T00:02:07.976Z,57.21
2019-04-27T00:04:59.741Z,52.70
2019-04-27T00:07:39.129Z,55.23
2019-04-27T00:10:20.530Z,57.21
2019-04-27T00:12:57.332Z,59.04
2019-04-27T00:15:50.795Z,59.91
2019-04-27T00:18:43.361Z,60.99
2019-04-27T00:21:43.033Z,61.46
2019-04-27T00:24:19.652Z,61.93
2019-04-27T00:26:54.062Z,52.87
2019-04-27T00:29:27.204Z,51.62
2019-04-27T00:32:00.110Z,54.24
2019-04-27T00:34:33.999Z,56.17
2019-04-27T00:37:36.822Z,57.19
2019-04-27T00:40:15.881Z,58.84
2019-04-27T00:42:48.778Z,59.98
2019-04-27T00:45:23.407Z,60.48
2019-04-27T00:47:59.726Z,61.04
2019-04-27T00:50:31.184Z,61.65
2019-04-27T00:53:04.088Z,61.96
2019-04-27T00:55:39.234Z,62.37
2019-04-27T00:58:23.598Z,61.09
2019-04-27T01:01:24.258Z,51.95
2019-04-27T01:04:07.402Z,53.48
2019-04-27T01:06:40.336Z,55.62
2019-04-27T01:09:14.789Z,57.11
2019-04-27T01:11:47.639Z,58.22
2019-04-27T01:14:20.644Z,59.37
2019-04-27T01:16:53.467Z,59.91
2019-04-27T01:19:26.415Z,60.34
2019-04-27T01:21:59.324Z,61.10
2019-04-27T01:24:32.179Z,61.71
2019-04-27T01:27:26.522Z,62.33
2019-04-27T01:30:00.902Z,63.22
2019-04-27T01:32:35.412Z,54.49
2019-04-27T01:35:08.755Z,51.20
2019-04-27T01:37:42.662Z,53.33
2019-04-27T01:40:16.543Z,55.19
2019-04-27T01:42:49.393Z,56.57
2019-04-27T01:45:22.276Z,57.94
2019-04-27T01:47:55.140Z,58.84
2019-04-27T01:50:29.020Z,59.36
2019-04-27T01:53:02.255Z,60.41
2019-04-27T01:55:35.209Z,61.01
2019-04-27T01:58:10.690Z,61.48
2019-04-27T02:01:01.644Z,62.25
2019-04-27T02:03:42.950Z,61.64
2019-04-27T02:06:15.953Z,50.81
2019-04-27T02:08:49.336Z,50.52
2019-04-27T02:11:22.333Z,52.92
2019-04-27T02:13:55.164Z,54.86
2019-04-27T02:16:29.009Z,56.31
2019-04-27T02:19:02.711Z,57.42
2019-04-27T02:21:35.650Z,58.57
2019-04-27T02:24:11.276Z,58.89
2019-04-27T02:26:44.425Z,60.13
2019-04-27T02:29:39.079Z,60.79
2019-04-27T02:32:24.731Z,60.73
2019-04-27T02:35:00.348Z,61.88
2019-04-27T02:37:34.458Z,60.80
2019-04-27T02:40:39.773Z,52.93
2019-04-27T02:43:15.167Z,52.69
2019-04-27T02:45:50.324Z,55.13
2019-04-27T02:48:23.615Z,56.48
2019-04-27T02:51:00.052Z,57.85
2019-04-27T02:53:50.565Z,59.06
2019-04-27T02:56:23.493Z,59.89
2019-04-27T02:58:56.291Z,60.71
2019-04-27T03:01:31.906Z,61.47
2019-04-27T03:04:04.865Z,61.78
2019-04-27T03:06:39.768Z,62.51
2019-04-27T03:09:12.350Z,58.55
2019-04-27T03:11:45.217Z,53.24
2019-04-27T03:14:36.578Z,54.60
2019-04-27T03:17:36.424Z,56.61
2019-04-27T03:20:15.347Z,57.81
2019-04-27T03:22:51.423Z,59.08
2019-04-27T03:25:40.354Z,59.69
2019-04-27T03:28:15.261Z,60.45
2019-04-27T03:30:51.588Z,60.96
2019-04-27T03:33:23.107Z,61.41
2019-04-27T03:35:56.132Z,62.17
2019-04-27T03:38:30.131Z,63.14
2019-04-27T03:41:03.360Z,54.60
2019-04-27T03:43:36.214Z,49.86
2019-04-27T03:46:10.349Z,52.30
2019-04-27T03:48:43.495Z,54.42
2019-04-27T03:51:25.345Z,55.94
2019-04-27T03:54:21.490Z,57.15
2019-04-27T03:56:55.374Z,58.22
2019-04-27T03:59:33.893Z,59.25
2019-04-27T04:02:09.626Z,59.88
2019-04-27T04:04:41.401Z,60.75
2019-04-27T04:07:19.719Z,61.53
2019-04-27T04:09:53.023Z,62.16
2019-04-27T04:12:43.738Z,62.19
2019-04-27T04:15:25.470Z,52.38
2019-04-27T04:17:59.499Z,53.13
2019-04-27T04:20:33.019Z,55.07
2019-04-27T04:23:05.903Z,57.21
2019-04-27T04:25:40.874Z,58.08
2019-04-27T04:28:13.484Z,59.00
2019-04-27T04:30:46.530Z,59.64
2019-04-27T04:33:20.911Z,60.72
2019-04-27T04:35:53.784Z,61.33
2019-04-27T04:38:26.593Z,62.09
2019-04-27T04:41:03.706Z,63.58
2019-04-27T04:43:46.398Z,56.66
2019-04-27T04:46:36.758Z,50.99
2019-04-27T04:49:09.700Z,53.35
2019-04-27T04:51:42.648Z,55.50
2019-04-27T04:54:15.622Z,57.04
2019-04-27T04:56:49.393Z,57.95
2019-04-27T04:59:22.445Z,59.33
2019-04-27T05:01:55.325Z,59.99
2019-04-27T05:04:29.163Z,60.61
2019-04-27T05:07:02.141Z,61.77
2019-04-27T05:09:35.076Z,62.44
2019-04-27T05:12:08.920Z,60.89
2019-04-27T05:14:41.913Z,51.69
2019-04-27T05:17:14.797Z,52.63
2019-04-27T05:19:49.090Z,54.66
2019-04-27T05:22:22.268Z,56.47
2019-04-27T05:25:01.238Z,57.90
2019-04-27T05:27:34.357Z,59.14
2019-04-27T05:30:09.252Z,60.86
2019-04-27T05:32:42.261Z,61.90
2019-04-27T05:35:16.102Z,62.87
2019-04-27T05:37:49.247Z,53.69
2019-04-27T05:40:22.179Z,52.99
2019-04-27T05:42:56.192Z,55.63
2019-04-27T05:46:45.836Z,57.70
2019-04-27T05:49:23.286Z,59.99
2019-04-27T05:51:56.126Z,61.05
2019-04-27T05:54:29.466Z,61.66
2019-04-27T05:57:02.402Z,63.29
2019-04-27T05:59:35.200Z,56.95
2019-04-27T06:02:09.365Z,51.03
2019-04-27T06:04:42.447Z,53.23
2019-04-27T06:07:15.319Z,55.69
2019-04-27T06:09:49.262Z,57.20
2019-04-27T06:12:22.419Z,58.84
2019-04-27T06:14:55.324Z,59.99
2019-04-27T06:17:29.893Z,61.24
2019-04-27T06:20:02.713Z,62.00
2019-04-27T06:22:36.628Z,60.47
2019-04-27T06:25:11.696Z,51.76
2019-04-27T06:27:44.741Z,52.20
2019-04-27T06:30:19.290Z,54.68
2019-04-27T06:32:52.376Z,57.01
2019-04-27T06:35:25.267Z,58.48
2019-04-27T06:37:58.594Z,60.15
2019-04-27T06:40:31.614Z,60.99
2019-04-27T06:43:04.665Z,62.12
2019-04-27T06:45:38.755Z,60.79
2019-04-27T06:48:11.942Z,53.15
2019-04-27T06:50:45.186Z,53.99
2019-04-27T06:53:19.183Z,56.13
2019-04-27T06:55:52.463Z,57.74
2019-04-27T06:58:25.339Z,58.94
2019-04-27T07:00:59.562Z,59.82
2019-04-27T07:03:32.607Z,60.58
2019-04-27T07:06:05.746Z,61.15
2019-04-27T07:08:40.063Z,61.58
2019-04-27T07:11:13.213Z,62.52
2019-04-27T07:13:46.270Z,59.61
2019-04-27T07:16:19.637Z,52.81
2019-04-27T07:18:52.689Z,54.76
2019-04-27T07:21:25.680Z,56.94
2019-04-27T07:23:59.479Z,58.77
2019-04-27T07:26:32.731Z,60.19
2019-04-27T07:29:05.693Z,60.49
2019-04-27T07:31:40.231Z,61.31
2019-04-27T07:34:13.343Z,62.15
2019-04-27T07:36:46.661Z,63.34
2019-04-27T07:39:19.864Z,53.93
2019-04-27T07:41:52.774Z,52.23
2019-04-27T07:44:44.483Z,54.37
2019-04-27T07:47:22.606Z,56.73
2019-04-27T07:49:55.574Z,58.25
2019-04-27T07:52:28.746Z,59.63
2019-04-27T07:55:02.022Z,60.83
2019-04-27T07:57:35.042Z,61.48
2019-04-27T08:00:09.487Z,61.29
2019-04-27T08:02:42.525Z,52.57
2019-04-27T08:05:15.856Z,54.04
2019-04-27T08:07:49.207Z,55.99
2019-04-27T08:10:23.045Z,57.47
2019-04-27T08:12:55.928Z,59.14
2019-04-27T08:15:29.127Z,59.87
2019-04-27T08:18:02.204Z,60.80
2019-04-27T08:20:36.098Z,61.78
2019-04-27T08:23:09.629Z,62.13
2019-04-27T08:25:42.704Z,61.86
2019-04-27T08:28:34.636Z,50.53
2019-04-27T08:31:21.212Z,51.96
2019-04-27T08:33:54.173Z,54.07
2019-04-27T08:36:28.794Z,56.12
2019-04-27T08:39:01.864Z,57.46
2019-04-27T08:41:36.347Z,58.45
2019-04-27T08:44:11.065Z,59.09
2019-04-27T08:46:44.134Z,60.14
2019-04-27T08:49:18.507Z,61.11
2019-04-27T08:51:59.168Z,61.68
2019-04-27T08:54:26.196Z,62.22
2019-04-27T08:56:59.635Z,62.35
2019-04-27T08:59:33.833Z,52.94
2019-04-27T09:02:08.628Z,51.98
2019-04-27T09:04:41.595Z,54.05
2019-04-27T09:07:39.769Z,56.24
2019-04-27T09:10:35.006Z,57.76
2019-04-27T09:13:23.253Z,59.03
2019-04-27T09:16:15.094Z,60.22
2019-04-27T09:18:49.837Z,61.17
2019-04-27T09:21:23.092Z,61.88
2019-04-27T09:23:56.042Z,62.25
2019-04-27T09:26:29.175Z,59.59
2019-04-27T09:29:02.219Z,53.87
2019-04-27T09:31:35.136Z,54.90
2019-04-27T09:34:08.171Z,56.92
2019-04-27T09:36:41.204Z,58.54
2019-04-27T09:39:16.315Z,59.44
2019-04-27T09:41:49.521Z,60.87
2019-04-27T09:44:22.573Z,61.42
2019-04-27T09:46:56.069Z,62.05
2019-04-27T09:49:29.243Z,61.47
2019-04-27T09:52:02.312Z,51.83
2019-04-27T09:54:36.553Z,52.73
2019-04-27T09:57:09.577Z,54.63
2019-04-27T09:59:42.484Z,56.57
2019-04-27T10:02:16.531Z,57.96
2019-04-27T10:04:49.712Z,59.13
2019-04-27T10:07:22.748Z,59.91
2019-04-27T10:09:56.036Z,60.55
2019-04-27T10:12:29.107Z,61.61
2019-04-27T10:15:01.973Z,63.05
2019-04-27T10:17:36.734Z,58.65
2019-04-27T10:20:10.231Z,51.13
2019-04-27T10:22:43.855Z,53.27
2019-04-27T10:25:25.117Z,55.42
2019-04-27T10:27:59.221Z,56.84
2019-04-27T10:30:32.230Z,57.67
2019-04-27T10:33:05.968Z,58.13
2019-04-27T10:35:39.876Z,59.30
2019-04-27T10:38:12.968Z,59.62
2019-04-27T10:40:46.282Z,59.87
2019-04-27T10:43:19.220Z,60.39
2019-04-27T10:45:52.050Z,60.80
2019-04-27T10:48:26.519Z,61.39
2019-04-27T10:50:59.675Z,61.82
2019-04-27T10:53:32.563Z,62.00
2019-04-27T10:56:05.474Z,62.98
2019-04-27T10:58:38.382Z,58.57
2019-04-27T11:01:11.409Z,53.79
2019-04-27T11:04:06.913Z,53.65
2019-04-27T11:06:42.230Z,55.01
2019-04-27T11:09:16.351Z,55.93
2019-04-27T11:11:49.451Z,56.96
2019-04-27T11:14:22.333Z,57.69
2019-04-27T11:16:57.286Z,58.08
2019-04-27T11:19:30.976Z,58.34
2019-04-27T11:22:07.054Z,58.99
2019-04-27T11:24:38.473Z,59.07
2019-04-27T11:27:11.478Z,59.52
2019-04-27T11:29:46.072Z,59.69
2019-04-27T11:32:19.239Z,60.20
2019-04-27T11:35:26.083Z,60.54
2019-04-27T11:37:59.719Z,61.25
2019-04-27T11:40:33.855Z,61.30
2019-04-27T11:43:07.236Z,61.69
2019-04-27T11:45:40.196Z,61.86
2019-04-27T11:48:13.242Z,62.12
2019-04-27T11:50:46.097Z,62.38
2019-04-27T11:53:22.623Z,61.45
2019-04-27T11:55:53.620Z,50.69
2019-04-27T11:58:26.625Z,50.36
2019-04-27T12:00:59.456Z,52.26
2019-04-27T12:03:32.468Z,53.83
2019-04-27T12:06:05.665Z,54.76
2019-04-27T12:08:38.665Z,55.55
2019-04-27T12:11:11.621Z,56.22
2019-04-27T12:13:46.124Z,57.02
2019-04-27T12:16:19.171Z,57.35
2019-04-27T12:18:52.076Z,57.80
2019-04-27T12:21:24.976Z,58.57
2019-04-27T12:23:57.955Z,59.34
2019-04-27T12:26:47.486Z,59.25
2019-04-27T12:29:23.781Z,59.59
2019-04-27T12:31:56.600Z,59.41
2019-04-27T12:34:29.415Z,59.72
2019-04-27T12:37:02.512Z,59.72
2019-04-27T12:39:35.340Z,59.64
2019-04-27T12:42:08.330Z,60.02
2019-04-27T12:44:42.617Z,59.84
2019-04-27T12:47:16.369Z,59.76
2019-04-27T12:49:49.287Z,60.21
2019-04-27T12:52:23.266Z,59.94
2019-04-27T12:55:16.780Z,59.93
2019-04-27T12:58:10.196Z,60.36
2019-04-27T13:00:45.588Z,60.38
2019-04-27T13:03:18.493Z,60.17
2019-04-27T13:05:51.319Z,59.82
2019-04-27T13:08:26.054Z,59.66
2019-04-27T13:10:58.999Z,59.23
2019-04-27T13:13:31.904Z,59.38
2019-04-27T13:16:07.651Z,59.41
2019-04-27T13:18:40.621Z,59.63
2019-04-27T13:21:13.597Z,59.59
2019-04-27T13:23:46.477Z,59.41
2019-04-27T13:26:19.298Z,59.45
2019-04-27T13:28:53.114Z,59.22
2019-04-27T13:31:26.122Z,59.48
2019-04-27T13:33:59.264Z,58.56
2019-04-27T13:36:33.139Z,58.37
2019-04-27T13:39:08.650Z,58.36
2019-04-27T13:41:43.248Z,58.39
2019-04-27T13:44:17.369Z,58.26
2019-04-27T13:47:08.027Z,57.41
2019-04-27T13:49:48.805Z,57.04
2019-04-27T13:52:26.364Z,57.30
2019-04-27T13:55:00.193Z,57.06
2019-04-27T13:57:33.043Z,56.68
2019-04-27T14:00:06.565Z,56.83
2019-04-27T14:02:39.880Z,56.71
2019-04-27T14:05:13.085Z,56.56
2019-04-27T14:07:46.075Z,56.29
2019-04-27T14:10:20.386Z,56.03
2019-04-27T14:12:53.473Z,56.40
2019-04-27T14:15:28.784Z,56.30
2019-04-27T14:18:01.340Z,56.33
2019-04-27T14:20:34.389Z,56.22
2019-04-27T14:23:16.195Z,56.38
2019-04-27T14:25:49.033Z,56.53
2019-04-27T14:28:21.965Z,57.08
2019-04-27T14:30:54.918Z,57.06
2019-04-27T14:33:28.405Z,57.11
2019-04-27T14:36:01.752Z,57.20
2019-04-27T14:38:34.739Z,57.11
2019-04-27T14:41:09.075Z,56.88
2019-04-27T14:43:42.284Z,56.90
2019-04-27T14:46:15.202Z,57.52
2019-04-27T14:48:48.482Z,57.29
2019-04-27T14:51:21.306Z,56.69
2019-04-27T14:53:54.199Z,57.01
2019-04-27T14:56:28.220Z,56.46
2019-04-27T14:59:01.240Z,56.04
2019-04-27T15:01:34.173Z,56.17
2019-04-27T15:04:07.158Z,55.73
2019-04-27T15:06:40.154Z,55.81
2019-04-27T15:09:17.380Z,56.10
2019-04-27T15:11:49.279Z,55.97
2019-04-27T15:14:23.802Z,55.63
2019-04-27T15:16:56.922Z,55.76
2019-04-27T15:19:35.103Z,55.78
2019-04-27T15:22:12.677Z,55.62
2019-04-27T15:24:47.370Z,55.63
2019-04-27T15:27:21.706Z,55.55
2019-04-27T15:29:55.792Z,56.26
2019-04-27T15:32:56.522Z,55.33
2019-04-27T15:35:40.515Z,55.27
2019-04-27T15:38:15.524Z,55.60
2019-04-27T15:41:16.107Z,55.66
2019-04-27T15:43:49.090Z,55.27
2019-04-27T15:46:22.124Z,55.16
2019-04-27T15:48:55.029Z,55.21
2019-04-27T15:51:28.340Z,55.53
2019-04-27T15:54:02.117Z,55.53
2019-04-27T15:56:35.497Z,54.79
2019-04-27T15:59:09.794Z,54.74
2019-04-27T16:01:42.823Z,55.06
2019-04-27T16:04:15.653Z,54.79
2019-04-27T16:06:50.315Z,54.89
2019-04-27T16:09:25.561Z,54.88
2019-04-27T16:12:09.643Z,55.00
2019-04-27T16:14:36.474Z,55.21
2019-04-27T16:17:11.366Z,54.82
2019-04-27T16:19:46.667Z,54.73
2019-04-27T16:22:18.419Z,54.86
2019-04-27T16:24:53.499Z,54.97
2019-04-27T16:27:31.435Z,55.15
2019-04-27T16:30:09.722Z,55.14
2019-04-27T16:32:35.868Z,55.10
2019-04-27T16:35:13.692Z,55.27
2019-04-27T16:38:08.126Z,55.38
2019-04-27T16:40:41.719Z,55.44
2019-04-27T16:43:14.730Z,55.49
2019-04-27T16:45:48.532Z,55.35
2019-04-27T16:48:21.606Z,55.50
2019-04-27T16:50:55.231Z,55.59
2019-04-27T16:56:15.275Z,56.04
2019-04-27T16:58:50.502Z,55.83
2019-04-27T17:01:23.180Z,56.07
2019-04-27T17:03:56.638Z,56.03
2019-04-27T17:06:29.843Z,56.19
2019-04-27T17:09:06.782Z,56.55
2019-04-27T17:11:43.668Z,56.63
2019-04-27T17:12:41.339Z,55.74
2019-04-27T17:14:22.437Z,56.65
2019-04-27T17:17:12.065Z,56.72
2019-04-27T17:19:52.102Z,56.91
2019-04-27T17:22:25.034Z,56.90
2019-04-27T17:24:59.005Z,56.92
2019-04-27T17:27:38.417Z,57.36
2019-04-27T17:30:11.521Z,57.36
2019-04-27T17:32:53.803Z,57.70
2019-04-27T17:35:28.461Z,57.71
2019-04-27T17:38:03.669Z,57.90
2019-04-27T17:40:36.042Z,58.04
2019-04-27T17:43:10.518Z,58.19
2019-04-27T17:45:43.610Z,58.23
2019-04-27T17:48:18.336Z,58.43
2019-04-27T17:50:51.403Z,58.79
2019-04-27T17:53:25.202Z,59.17
2019-04-27T17:56:02.948Z,59.82
2019-04-27T17:58:35.324Z,60.22
2019-04-27T18:01:14.016Z,60.64
2019-04-27T18:03:45.068Z,60.94
2019-04-27T18:06:20.519Z,61.36
2019-04-27T18:08:55.005Z,61.51
2019-04-27T18:11:28.729Z,61.31
2019-04-27T18:14:01.966Z,61.69
2019-04-27T18:16:34.877Z,61.88
2019-04-27T18:19:13.774Z,62.02
2019-04-27T18:22:03.641Z,62.13
2019-04-27T18:24:50.792Z,62.46
2019-04-27T18:27:41.459Z,63.60
2019-04-27T18:30:41.873Z,53.49
2019-04-27T18:33:12.766Z,48.40
2019-04-27T18:35:45.734Z,50.12
2019-04-27T18:38:18.705Z,51.40
2019-04-27T18:40:51.630Z,52.43
2019-04-27T18:43:24.750Z,53.40
2019-04-27T18:45:58.728Z,54.39
2019-04-27T18:48:58.344Z,55.23
2019-04-27T18:51:57.861Z,55.96
2019-04-27T18:54:33.039Z,56.82
2019-04-27T18:57:05.137Z,57.32
2019-04-27T18:59:38.149Z,58.00
2019-04-27T19:02:11.217Z,58.60
2019-04-27T19:04:44.103Z,59.30
2019-04-27T19:07:17.088Z,60.27
2019-04-27T19:09:49.995Z,60.97
2019-04-27T19:12:22.943Z,61.70
2019-04-27T19:14:55.830Z,62.22
2019-04-27T19:17:28.785Z,62.58
2019-04-27T19:20:01.916Z,64.03
2019-04-27T19:22:35.079Z,54.12
2019-04-27T19:25:10.274Z,48.98
2019-04-27T19:27:59.756Z,50.98
2019-04-27T19:30:36.635Z,53.15
2019-04-27T19:33:09.556Z,54.85
2019-04-27T19:35:42.441Z,55.89
2019-04-27T19:38:15.407Z,56.91
2019-04-27T19:40:48.456Z,57.62
2019-04-27T19:43:21.408Z,58.42
2019-04-27T19:45:54.555Z,59.12
2019-04-27T19:48:28.641Z,60.05
2019-04-27T19:51:02.089Z,60.86
2019-04-27T19:53:35.093Z,61.47
2019-04-27T19:56:07.999Z,61.86
2019-04-27T19:58:45.502Z,62.47
2019-04-27T20:01:35.575Z,63.78
2019-04-27T20:04:23.442Z,53.82
2019-04-27T20:06:56.350Z,49.05
2019-04-27T20:09:42.896Z,50.47
2019-04-27T20:12:15.888Z,52.60
2019-04-27T20:14:57.709Z,54.21
2019-04-27T20:17:32.409Z,55.90
2019-04-27T20:20:06.776Z,57.67
2019-04-27T20:22:39.836Z,58.61
2019-04-27T20:25:16.351Z,59.45
2019-04-27T20:27:51.693Z,60.58
2019-04-27T20:30:23.933Z,61.03
2019-04-27T20:32:56.859Z,62.15
2019-04-27T20:35:29.931Z,63.36
2019-04-27T20:38:02.823Z,62.13
2019-04-27T20:40:35.950Z,51.92
2019-04-27T20:43:09.029Z,50.51
2019-04-27T20:45:42.066Z,52.69
2019-04-27T20:48:15.083Z,54.77
2019-04-27T20:50:48.028Z,56.29
2019-04-27T20:53:23.977Z,57.74
2019-04-27T20:55:56.928Z,58.66
2019-04-27T20:58:31.137Z,59.71
2019-04-27T21:01:04.372Z,60.60
2019-04-27T21:03:42.206Z,61.25
2019-04-27T21:06:29.636Z,62.16
2019-04-27T21:09:03.051Z,63.00
2019-04-27T21:11:48.010Z,64.00
2019-04-27T21:14:21.780Z,53.33
2019-04-27T21:16:54.928Z,50.56
2019-04-27T21:19:27.835Z,52.95
2019-04-27T21:22:01.333Z,55.14
2019-04-27T21:24:34.364Z,56.88
2019-04-27T21:27:07.285Z,58.18
2019-04-27T21:29:41.972Z,59.21
2019-04-27T21:32:14.819Z,60.40
2019-04-27T21:34:47.823Z,61.09
2019-04-27T21:37:20.720Z,61.87
2019-04-27T21:40:15.596Z,62.97
2019-04-27T21:42:50.945Z,63.23
2019-04-27T21:45:24.764Z,52.42
2019-04-27T21:47:57.613Z,50.26
2019-04-27T21:50:31.386Z,52.28
2019-04-27T21:53:11.035Z,54.11
2019-04-27T21:55:43.962Z,55.82
2019-04-27T21:58:28.312Z,56.79
2019-04-27T22:01:14.651Z,57.69
2019-04-27T22:03:50.651Z,58.71
2019-04-27T22:06:23.462Z,59.66
2019-04-27T22:08:57.346Z,60.42
2019-04-27T22:11:31.944Z,61.06
2019-04-27T22:14:06.140Z,61.78
2019-04-27T22:16:39.137Z,62.54
2019-04-27T22:19:12.198Z,64.68
2019-04-27T22:21:45.088Z,54.70
2019-04-27T22:24:39.211Z,49.36
2019-04-27T22:27:12.431Z,51.65
2019-04-27T22:29:45.391Z,53.72
2019-04-27T22:32:18.205Z,55.48
2019-04-27T22:34:51.069Z,56.82
2019-04-27T22:37:23.966Z,58.20
2019-04-27T22:40:24.953Z,59.17
2019-04-27T22:43:19.851Z,60.02
2019-04-27T22:45:52.852Z,60.83
2019-04-27T22:48:25.686Z,62.02
2019-04-27T22:50:58.563Z,62.68
2019-04-27T22:53:32.455Z,64.18
2019-04-27T22:56:21.936Z,53.70
2019-04-27T22:59:11.457Z,49.55
2019-04-27T23:02:11.404Z,52.15
2019-04-27T23:04:48.754Z,54.43
2019-04-27T23:07:21.714Z,56.04
2019-04-27T23:09:54.732Z,57.42
2019-04-27T23:12:27.682Z,58.41
2019-04-27T23:15:00.576Z,59.27
2019-04-27T23:17:52.526Z,59.93
2019-04-27T23:20:25.461Z,60.60
2019-04-27T23:22:58.386Z,61.14
2019-04-27T23:25:31.420Z,62.49
2019-04-27T23:28:04.328Z,63.43
2019-04-27T23:31:02.551Z,53.72
2019-04-27T23:33:36.571Z,49.19
2019-04-27T23:36:11.402Z,51.58
2019-04-27T23:38:44.505Z,54.04
2019-04-27T23:41:17.398Z,56.12
2019-04-27T23:43:50.374Z,57.40
2019-04-27T23:46:23.229Z,58.51
2019-04-27T23:48:56.085Z,59.66
2019-04-27T23:51:41.276Z,60.26
2019-04-27T23:54:14.129Z,60.67
2019-04-27T23:56:47.013Z,61.64
2019-04-27T23:59:25.165Z,62.56
